Haacht, Belgium
Current Conditions -  °F | °C
As of 3:20 AM on Saturday 25 Oct 2014 (Local Time) from EBBR Reporting Station
Broken Clouds Broken Clouds  
Wind Chill: 52°   Ceiling: 1000
Heat Index: 52°   Visibility: 6mi
Dew Point: 50°   Wind: 12mph
Humidity: 94%   Direction: 220°SW
Pressure: 30"   Gusts: NA
Location:  50.98°N, 4.64°E
Report Text: EBBR 250120Z 22010KT 9000 SCT007 BKN010 11/10 Q1016 RERA TEMPO 4000 BR
Loading
Personal Weather Stations






























Interactive Weather Map
Tropical Storm Tracking
New forecast layout! Learn more

10-Day Weather Forecast

Advertisements
Track Severe Weather on mobile